Time;durP1;ratioP1;P1;durP2;ratioP2;P2;SDS_P1;SDS_P2;PMS_P1;PMS_P2;Temp;Humidity;BMP_temperature;BMP_pressure;BME280_temperature;BME280_humidity;BME280_pressure;Samples;Min_cycle;Max_cycle;Signal;HPM_P1;HPM_P2
2022/08/19 00:01:26;;;;;;;19.17;16.27;;;23.90;64.10;;;;;;5085873;28;20460;-49
2022/08/19 00:04:00;;;;;;;17.40;15.30;;;23.90;64.10;;;;;;5087033;28;20468;-49
2022/08/19 00:06:29;;;;;;;19.30;15.80;;;23.90;64.00;;;;;;5068120;28;20505;-49
2022/08/19 00:08:57;;;;;;;19.17;16.10;;;23.90;64.00;;;;;;5087003;28;20852;-49
2022/08/19 00:11:25;;;;;;;16.93;15.20;;;23.90;64.00;;;;;;5080927;28;20460;-49
2022/08/19 00:13:52;;;;;;;17.40;15.57;;;23.90;64.00;;;;;;5086558;28;20486;-49
2022/08/19 00:16:24;;;;;;;18.03;16.13;;;23.90;64.00;;;;;;5083005;28;20472;-49
2022/08/19 00:18:54;;;;;;;19.20;16.13;;;23.90;64.00;;;;;;5087930;28;20449;-49
2022/08/19 00:21:24;;;;;;;18.60;16.63;;;23.80;64.10;;;;;;5085462;28;20456;-49
2022/08/19 00:23:50;;;;;;;17.60;15.73;;;23.80;64.10;;;;;;5084515;28;20464;-49
2022/08/19 00:26:17;;;;;;;20.77;16.70;;;23.80;64.10;;;;;;5081866;28;20467;-49
2022/08/19 00:28:44;;;;;;;20.47;15.80;;;23.80;64.20;;;;;;5038454;28;20473;-49
2022/08/19 00:31:11;;;;;;;18.17;16.00;;;23.80;64.20;;;;;;5085396;28;20471;-49
2022/08/19 00:33:37;;;;;;;22.17;15.80;;;23.80;64.20;;;;;;5068536;28;21007;-49
2022/08/19 00:36:07;;;;;;;18.07;15.80;;;23.80;64.20;;;;;;5066325;28;20497;-49
2022/08/19 00:38:35;;;;;;;18.43;16.10;;;23.80;64.20;;;;;;5073086;28;20460;-49
2022/08/19 00:41:05;;;;;;;20.67;16.90;;;23.80;64.20;;;;;;5085084;28;20494;-49
2022/08/19 00:43:32;;;;;;;18.17;16.27;;;23.80;64.20;;;;;;5084305;28;20463;-49
2022/08/19 00:45:58;;;;;;;16.80;15.00;;;23.80;64.20;;;;;;5085425;28;20463;-49
2022/08/19 00:48:25;;;;;;;20.23;18.13;;;23.80;64.20;;;;;;5083405;28;20452;-49
2022/08/19 00:50:55;;;;;;;18.67;16.57;;;23.80;64.20;;;;;;5071822;28;21095;-49
2022/08/19 00:53:26;;;;;;;20.90;17.70;;;23.80;64.20;;;;;;5085058;28;20523;-49
2022/08/19 00:55:56;;;;;;;17.73;15.83;;;23.80;64.20;;;;;;5085834;28;20459;-50
2022/08/19 00:58:27;;;;;;;18.83;16.83;;;23.80;64.20;;;;;;5064916;28;20494;-49
2022/08/19 01:00:54;;;;;;;20.50;17.83;;;23.80;64.10;;;;;;5085104;28;20456;-49
2022/08/19 01:03:22;;;;;;;19.50;16.47;;;23.80;64.20;;;;;;5061636;28;20456;-49
2022/08/19 01:05:51;;;;;;;20.20;16.93;;;23.80;64.10;;;;;;5087308;28;20451;-49
2022/08/19 01:08:19;;;;;;;18.87;15.47;;;23.70;64.30;;;;;;5084999;28;20471;-49
2022/08/19 01:10:50;;;;;;;20.77;16.20;;;23.70;64.30;;;;;;5087212;28;20536;-49
2022/08/19 01:13:21;;;;;;;21.30;16.97;;;23.70;64.40;;;;;;5084971;28;20495;-49
2022/08/19 01:15:58;;;;;;;20.27;16.80;;;23.70;64.60;;;;;;5084850;28;20454;-49
2022/08/19 01:18:27;;;;;;;21.30;16.27;;;23.70;64.60;;;;;;5075846;28;20470;-49
2022/08/19 01:20:58;;;;;;;21.90;17.30;;;23.70;64.60;;;;;;5083964;28;20464;-49
2022/08/19 01:23:42;;;;;;;18.77;15.30;;;23.60;64.60;;;;;;5084489;28;20467;-49
2022/08/19 01:26:15;;;;;;;19.63;16.03;;;23.60;64.60;;;;;;5085331;28;20456;-49
2022/08/19 01:28:45;;;;;;;18.40;15.43;;;23.70;64.60;;;;;;5081182;28;20452;-49
2022/08/19 01:31:22;;;;;;;17.77;15.30;;;23.60;64.60;;;;;;5083947;28;20554;-49
2022/08/19 01:33:56;;;;;;;18.53;16.03;;;23.60;64.60;;;;;;5084204;28;20548;-49
2022/08/19 01:36:34;;;;;;;18.33;15.60;;;23.60;64.60;;;;;;5064379;28;20460;-49
2022/08/19 01:39:05;;;;;;;16.50;14.70;;;23.60;64.60;;;;;;5068393;28;20932;-49
2022/08/19 01:41:32;;;;;;;18.63;14.97;;;23.60;64.60;;;;;;5066526;28;20463;-49
2022/08/19 01:44:03;;;;;;;17.23;15.47;;;23.60;64.60;;;;;;5085036;28;20464;-49
2022/08/19 01:46:45;;;;;;;16.77;14.40;;;23.60;64.70;;;;;;5068524;28;20555;-49
2022/08/19 01:49:12;;;;;;;16.80;13.70;;;23.60;64.80;;;;;;5085519;28;20452;-49
2022/08/19 01:51:39;;;;;;;15.90;14.13;;;23.60;65.00;;;;;;5066322;28;20463;-49
2022/08/19 01:54:12;;;;;;;19.87;15.30;;;23.60;65.00;;;;;;5081425;28;20535;-49
2022/08/19 01:56:51;;;;;;;16.93;14.90;;;23.60;65.00;;;;;;5064304;28;21054;-49
2022/08/19 01:59:21;;;;;;;17.90;15.13;;;23.50;65.20;;;;;;5086168;28;20459;-50
2022/08/19 02:01:47;;;;;;;16.03;14.33;;;23.50;65.30;;;;;;5084520;28;20463;-49
2022/08/19 02:04:14;;;;;;;18.77;16.17;;;23.50;65.30;;;;;;5082993;28;20463;-49
2022/08/19 02:06:41;;;;;;;18.37;15.97;;;23.50;65.20;;;;;;5081469;28;20475;-49
2022/08/19 02:09:09;;;;;;;17.17;14.23;;;23.50;65.20;;;;;;5067598;28;20456;-49
2022/08/19 02:11:37;;;;;;;17.40;15.63;;;23.50;65.20;;;;;;5084715;28;20460;-49
2022/08/19 02:14:06;;;;;;;18.30;15.67;;;23.50;65.20;;;;;;5063180;28;20487;-49
2022/08/19 02:16:35;;;;;;;16.97;15.17;;;23.50;65.20;;;;;;5079384;28;20463;-49
2022/08/19 02:19:02;;;;;;;18.07;16.17;;;23.50;65.30;;;;;;5081891;28;20464;-49
2022/08/19 02:21:30;;;;;;;17.90;16.00;;;23.40;65.40;;;;;;5062447;28;20470;-49
2022/08/19 02:23:57;;;;;;;17.47;15.57;;;23.40;65.40;;;;;;5082104;28;20475;-49
2022/08/19 02:26:26;;;;;;;18.37;15.03;;;23.40;65.40;;;;;;5085499;28;20470;-49
2022/08/19 02:28:54;;;;;;;16.40;14.67;;;23.40;65.40;;;;;;5063109;28;20457;-49
2022/08/19 02:31:22;;;;;;;19.40;15.43;;;23.40;65.50;;;;;;5081618;28;20464;-49
2022/08/19 02:33:52;;;;;;;16.83;14.70;;;23.40;65.60;;;;;;5084294;28;20491;-49
2022/08/19 02:36:24;;;;;;;16.03;14.47;;;23.40;65.60;;;;;;5081552;28;20459;-49
2022/08/19 02:38:51;;;;;;;15.97;14.30;;;23.40;65.60;;;;;;5087852;28;20487;-49
2022/08/19 02:41:27;;;;;;;15.97;14.30;;;23.40;65.70;;;;;;5088748;28;20831;-49
2022/08/19 02:43:56;;;;;;;14.37;12.83;;;23.30;65.70;;;;;;5088473;28;20465;-50
2022/08/19 02:46:44;;;;;;;15.20;13.60;;;23.30;65.70;;;;;;5086840;28;20923;-49
2022/08/19 02:49:12;;;;;;;14.60;13.20;;;23.30;65.80;;;;;;5085177;28;20462;-49
2022/08/19 02:51:42;;;;;;;16.13;14.53;;;23.30;65.70;;;;;;5070141;28;20467;-48
2022/08/19 02:54:10;;;;;;;16.60;13.07;;;23.30;65.60;;;;;;5089355;28;20919;-49
2022/08/19 02:56:39;;;;;;;14.07;12.70;;;23.30;65.60;;;;;;5083273;28;21068;-49
2022/08/19 02:59:08;;;;;;;13.60;12.20;;;23.30;65.60;;;;;;5068988;28;20456;-50
2022/08/19 03:01:37;;;;;;;13.13;11.87;;;23.20;65.60;;;;;;5088653;28;20941;-46
2022/08/19 03:04:07;;;;;;;13.47;11.53;;;23.20;65.70;;;;;;5068459;28;20464;-46
2022/08/19 03:06:37;;;;;;;14.00;12.27;;;23.20;65.70;;;;;;5070872;28;20467;-46
2022/08/19 03:09:04;;;;;;;13.77;12.40;;;23.20;65.60;;;;;;5067744;28;20466;-46
2022/08/19 03:11:31;;;;;;;16.60;12.27;;;23.30;65.50;;;;;;5054993;28;20444;-46
2022/08/19 03:13:59;;;;;;;13.60;12.20;;;23.20;65.60;;;;;;5085596;28;21219;-46
2022/08/19 03:16:29;;;;;;;12.23;10.93;;;23.20;65.70;;;;;;5086014;28;20456;-46
2022/08/19 03:19:01;;;;;;;14.10;12.03;;;23.20;65.70;;;;;;5084863;28;20460;-46
2022/08/19 03:21:30;;;;;;;14.67;13.10;;;23.10;65.80;;;;;;5087757;28;20466;-46
2022/08/19 03:24:02;;;;;;;15.07;13.53;;;23.10;65.90;;;;;;5066831;28;20940;-46
2022/08/19 03:26:29;;;;;;;14.47;12.10;;;23.10;66.00;;;;;;5085364;28;20461;-46
2022/08/19 03:28:57;;;;;;;13.47;12.10;;;23.10;66.00;;;;;;5083481;28;20457;-46
2022/08/19 03:31:26;;;;;;;15.57;12.63;;;23.10;66.10;;;;;;5088642;28;20855;-46
2022/08/19 03:34:18;;;;;;;13.13;11.73;;;23.10;66.10;;;;;;5070021;28;20480;-46
2022/08/19 03:36:45;;;;;;;12.90;11.63;;;23.10;66.10;;;;;;5082852;28;20452;-46
2022/08/19 03:39:12;;;;;;;14.83;12.70;;;23.00;66.20;;;;;;5086966;28;20467;-46
2022/08/19 03:41:42;;;;;;;13.73;12.30;;;23.00;66.30;;;;;;5086347;28;20440;-46
2022/08/19 03:44:17;;;;;;;14.20;12.77;;;23.00;66.30;;;;;;5081244;28;20459;-49
2022/08/19 03:46:47;;;;;;;15.67;13.70;;;23.00;66.40;;;;;;5086104;28;20555;-49
2022/08/19 03:49:15;;;;;;;14.57;13.07;;;22.90;66.50;;;;;;5067032;28;20479;-49
2022/08/19 03:51:45;;;;;;;15.03;13.30;;;22.90;66.50;;;;;;5085997;28;20547;-49
2022/08/19 03:54:13;;;;;;;13.93;12.43;;;22.90;66.60;;;;;;5083888;28;20997;-49
2022/08/19 03:56:42;;;;;;;13.80;12.20;;;22.90;66.60;;;;;;5067120;28;21004;-49
2022/08/19 03:59:13;;;;;;;14.07;12.40;;;22.90;66.70;;;;;;5083931;28;20460;-49
2022/08/19 04:01:39;;;;;;;13.60;12.10;;;22.90;66.80;;;;;;5087916;28;20796;-49
2022/08/19 04:04:07;;;;;;;13.37;11.97;;;22.90;66.80;;;;;;5066447;28;20461;-49
2022/08/19 04:06:36;;;;;;;14.97;12.80;;;22.90;67.00;;;;;;5086826;28;20573;-49
2022/08/19 04:09:08;;;;;;;14.07;12.30;;;22.90;67.10;;;;;;5069248;28;20475;-49
2022/08/19 04:11:43;;;;;;;14.03;12.63;;;22.80;67.20;;;;;;5087804;28;20823;-46
2022/08/19 04:14:16;;;;;;;13.80;12.33;;;22.80;67.20;;;;;;5082436;28;20492;-46
2022/08/19 04:16:44;;;;;;;12.47;11.17;;;22.90;67.20;;;;;;5080417;28;20902;-46
2022/08/19 04:19:12;;;;;;;13.00;10.97;;;22.80;67.20;;;;;;5067593;28;21296;-46
2022/08/19 04:21:38;;;;;;;13.37;11.87;;;22.80;67.20;;;;;;5067033;28;21031;-46
2022/08/19 04:24:06;;;;;;;13.67;12.20;;;22.80;67.30;;;;;;5066127;28;20460;-46
2022/08/19 04:26:35;;;;;;;16.50;14.80;;;22.80;67.50;;;;;;5083550;28;20506;-46
2022/08/19 04:29:13;;;;;;;14.30;12.13;;;22.70;67.60;;;;;;5082968;28;20461;-46
2022/08/19 04:31:43;;;;;;;14.43;12.80;;;22.70;67.70;;;;;;5081575;28;20860;-46
2022/08/19 04:34:11;;;;;;;13.27;11.73;;;22.70;67.80;;;;;;5080099;28;20480;-46
2022/08/19 04:36:40;;;;;;;14.60;13.10;;;22.70;67.90;;;;;;5064523;28;20466;-46
2022/08/19 04:39:12;;;;;;;14.17;12.77;;;22.70;67.90;;;;;;5083000;28;20822;-46
2022/08/19 04:44:25;;;;;;;14.90;11.47;;;22.70;68.00;;;;;;5085239;28;20847;-46
2022/08/19 04:46:52;;;;;;;13.37;11.97;;;22.60;68.00;;;;;;5090986;28;20482;-48
2022/08/19 04:49:21;;;;;;;13.27;11.90;;;22.60;68.10;;;;;;5097203;28;20460;-48
2022/08/19 04:51:51;;;;;;;15.20;11.73;;;22.60;68.30;;;;;;5101035;28;20547;-48
2022/08/19 04:54:22;;;;;;;14.40;12.47;;;22.50;68.40;;;;;;5099848;28;20895;-48
2022/08/19 04:57:08;;;;;;;14.03;12.67;;;22.50;68.40;;;;;;5082579;28;20469;-46
2022/08/19 04:59:36;;;;;;;14.87;13.37;;;22.50;68.50;;;;;;5063680;28;21036;-46
2022/08/19 05:02:04;;;;;;;13.40;11.97;;;22.50;68.50;;;;;;5064266;28;20467;-46
2022/08/19 05:04:32;;;;;;;14.80;13.07;;;22.50;68.50;;;;;;5084096;28;20957;-45
2022/08/19 05:07:00;;;;;;;14.50;12.97;;;22.50;68.40;;;;;;5082208;28;21144;-46
2022/08/19 05:09:29;;;;;;;14.23;11.83;;;22.50;68.60;;;;;;5066471;28;20456;-46
2022/08/19 05:12:16;;;;;;;14.83;13.17;;;22.40;68.60;;;;;;5065903;28;20461;-46
2022/08/19 05:14:45;;;;;;;15.40;12.87;;;22.40;68.60;;;;;;5061510;28;20488;-45
2022/08/19 05:17:12;;;;;;;17.33;13.70;;;22.40;68.60;;;;;;5078389;28;20460;-46
2022/08/19 05:22:46;;;;;;;15.17;12.50;;;22.40;68.60;;;;;;5081267;28;20482;-46
2022/08/19 05:25:18;;;;;;;15.17;12.97;;;22.40;68.70;;;;;;5061658;28;20452;-45
2022/08/19 05:27:45;;;;;;;15.93;14.20;;;22.40;68.80;;;;;;5079494;28;20459;-46
2022/08/19 05:30:12;;;;;;;14.00;12.60;;;22.50;68.70;;;;;;5058771;28;20457;-46
2022/08/19 05:32:40;;;;;;;15.77;13.80;;;22.50;68.70;;;;;;5083294;28;20468;-46
2022/08/19 05:35:07;;;;;;;16.90;12.73;;;22.50;68.80;;;;;;5059334;28;20503;-46
2022/08/19 05:37:34;;;;;;;17.67;13.10;;;22.50;68.80;;;;;;5085488;28;20454;-46
2022/08/19 05:40:01;;;;;;;14.50;13.00;;;22.50;68.80;;;;;;5083652;28;20444;-46
2022/08/19 05:42:28;;;;;;;15.13;13.03;;;22.50;68.80;;;;;;5084698;28;20441;-46
2022/08/19 05:44:55;;;;;;;19.33;13.27;;;22.50;68.90;;;;;;5066481;28;20464;-46
2022/08/19 05:47:22;;;;;;;14.97;13.27;;;22.50;68.90;;;;;;5072775;28;20464;-46
2022/08/19 05:49:51;;;;;;;13.97;12.10;;;22.60;68.90;;;;;;5084356;28;20984;-46
2022/08/19 05:52:18;;;;;;;14.80;12.93;;;22.60;68.90;;;;;;5085837;28;20957;-46
2022/08/19 05:54:54;;;;;;;15.67;13.67;;;22.60;68.80;;;;;;5084784;28;20484;-46
2022/08/19 05:57:22;;;;;;;18.27;13.87;;;22.70;68.60;;;;;;5067127;28;21036;-46
2022/08/19 05:59:51;;;;;;;15.50;12.60;;;22.70;68.60;;;;;;5068946;28;21066;-46
2022/08/19 06:02:23;;;;;;;14.90;12.67;;;22.70;68.70;;;;;;5051220;28;20444;-46
2022/08/19 06:04:50;;;;;;;14.57;13.07;;;22.70;68.90;;;;;;5069158;28;20470;-46
2022/08/19 06:07:16;;;;;;;15.97;12.80;;;22.80;68.70;;;;;;5086097;28;20807;-46
2022/08/19 06:09:43;;;;;;;14.90;13.43;;;22.80;68.70;;;;;;5085775;28;20471;-46
2022/08/19 06:12:34;;;;;;;13.60;12.30;;;22.80;68.80;;;;;;5082866;28;20460;-46
2022/08/19 06:15:10;;;;;;;13.60;11.90;;;22.80;68.80;;;;;;5069762;28;20574;-46
2022/08/19 06:17:38;;;;;;;13.83;12.43;;;22.90;68.90;;;;;;5067911;28;20445;-45
2022/08/19 06:20:08;;;;;;;13.90;12.27;;;22.90;68.80;;;;;;5071334;28;20992;-46
2022/08/19 06:22:44;;;;;;;15.30;13.23;;;22.90;68.70;;;;;;5083235;28;20462;-46
2022/08/19 06:25:12;;;;;;;14.33;12.27;;;22.90;68.70;;;;;;5086478;28;20459;-46
2022/08/19 06:27:39;;;;;;;12.50;11.13;;;22.90;68.60;;;;;;5089594;28;20478;-46
2022/08/19 06:30:26;;;;;;;15.87;13.07;;;23.00;68.50;;;;;;5089458;28;20444;-46
2022/08/19 06:32:53;;;;;;;14.80;11.93;;;23.00;68.50;;;;;;5070107;28;20459;-46
2022/08/19 06:35:19;;;;;;;13.53;12.10;;;23.00;68.40;;;;;;5088574;28;20475;-46
2022/08/19 06:37:46;;;;;;;18.27;12.60;;;23.00;68.30;;;;;;5071637;28;20451;-46
2022/08/19 06:40:13;;;;;;;12.30;11.10;;;23.10;68.20;;;;;;5089656;28;20440;-46
2022/08/19 06:42:40;;;;;;;13.00;11.23;;;23.20;68.20;;;;;;5070172;28;20439;-46
2022/08/19 06:45:21;;;;;;;12.43;11.07;;;23.10;68.30;;;;;;5090011;28;20440;-46
2022/08/19 06:47:54;;;;;;;12.13;10.90;;;23.20;68.40;;;;;;5086986;28;20472;-46
2022/08/19 06:50:21;;;;;;;12.60;11.40;;;23.20;68.10;;;;;;5071748;28;20454;-46
2022/08/19 06:52:50;;;;;;;12.07;10.97;;;23.30;68.00;;;;;;5087546;28;20444;-46
2022/08/19 06:55:19;;;;;;;11.70;10.50;;;23.30;68.00;;;;;;5071977;28;20513;-46
2022/08/19 06:57:46;;;;;;;12.23;11.03;;;23.30;68.00;;;;;;5069883;28;20866;-46
2022/08/19 07:00:13;;;;;;;12.60;11.30;;;23.40;67.90;;;;;;5089131;28;20501;-46
2022/08/19 07:02:44;;;;;;;12.07;10.80;;;23.40;67.70;;;;;;5089407;28;20978;-46
2022/08/19 07:05:21;;;;;;;11.53;10.20;;;23.50;67.70;;;;;;5086338;28;20447;-46
2022/08/19 07:07:48;;;;;;;11.50;10.30;;;23.60;67.50;;;;;;5087010;28;20451;-46
2022/08/19 07:10:16;;;;;;;12.93;10.03;;;23.60;67.50;;;;;;5071837;28;20451;-46
2022/08/19 07:12:44;;;;;;;15.07;9.60;;;23.70;67.40;;;;;;5088566;28;20444;-46
2022/08/19 07:15:11;;;;;;;11.27;9.80;;;23.70;67.20;;;;;;5071141;28;20479;-46
2022/08/19 07:17:38;;;;;;;12.33;10.70;;;23.80;67.20;;;;;;5088359;28;20448;-46
2022/08/19 07:20:08;;;;;;;10.23;8.83;;;23.80;67.10;;;;;;5089327;28;20440;-46
2022/08/19 07:22:39;;;;;;;9.80;8.80;;;23.90;66.80;;;;;;5088757;28;20448;-46
2022/08/19 07:25:09;;;;;;;11.23;8.80;;;24.00;66.70;;;;;;5084419;28;20483;-46
2022/08/19 07:27:36;;;;;;;10.00;8.03;;;24.10;66.60;;;;;;5067489;28;20459;-46
2022/08/19 07:30:06;;;;;;;10.47;8.20;;;24.20;66.10;;;;;;5089273;28;20472;-46
2022/08/19 07:32:37;;;;;;;10.43;9.13;;;24.20;65.80;;;;;;5070635;28;20523;-46
2022/08/19 07:35:05;;;;;;;9.60;8.73;;;24.30;65.50;;;;;;5088309;28;20490;-46
2022/08/19 07:37:32;;;;;;;8.90;7.80;;;24.40;65.30;;;;;;5071305;28;20832;-46
2022/08/19 07:40:00;;;;;;;9.20;8.30;;;24.40;65.20;;;;;;5088274;28;20889;-46
2022/08/19 07:42:29;;;;;;;11.83;8.00;;;24.50;65.00;;;;;;5070993;28;20447;-45
2022/08/19 07:44:56;;;;;;;10.10;9.10;;;24.60;64.90;;;;;;5071000;28;20452;-46
2022/08/19 07:47:22;;;;;;;8.70;7.87;;;24.60;64.70;;;;;;5085100;28;20452;-45
2022/08/19 07:50:11;;;;;;;10.80;9.10;;;24.80;64.60;;;;;;5085522;28;20448;-45
2022/08/19 07:52:39;;;;;;;11.07;9.63;;;24.90;63.80;;;;;;5069669;28;20483;-45
2022/08/19 07:55:08;;;;;;;10.50;9.20;;;25.00;63.10;;;;;;5088465;28;20844;-46
2022/08/19 07:57:55;;;;;;;12.13;10.17;;;25.00;62.80;;;;;;5088405;28;20968;-45
2022/08/19 08:00:22;;;;;;;11.40;8.90;;;25.00;62.70;;;;;;5085843;28;20440;-45
2022/08/19 08:02:51;;;;;;;13.00;8.27;;;25.10;62.60;;;;;;5070296;28;20444;-45
2022/08/19 08:10:56;;;;;;;12.03;8.87;;;25.20;62.70;;;;;;5088077;28;20937;-45
2022/08/19 08:13:24;;;;;;;10.87;9.73;;;25.20;62.50;;;;;;5088204;28;20450;-45
2022/08/19 08:15:52;;;;;;;13.23;11.50;;;25.30;62.00;;;;;;5087642;28;20520;-45
2022/08/19 08:18:23;;;;;;;12.60;11.23;;;25.30;61.70;;;;;;5068698;28;20821;-45
2022/08/19 08:20:57;;;;;;;12.83;11.30;;;25.40;61.50;;;;;;5070070;28;20441;-45
2022/08/19 08:23:29;;;;;;;12.37;11.07;;;25.40;61.40;;;;;;5067541;28;20863;-46
2022/08/19 08:25:57;;;;;;;14.10;12.40;;;25.50;61.40;;;;;;5064669;28;20456;-46
2022/08/19 08:28:27;;;;;;;12.33;11.10;;;25.50;61.20;;;;;;5086958;28;20507;-46
2022/08/19 08:30:56;;;;;;;14.10;11.63;;;25.60;61.00;;;;;;5069488;28;20856;-46
2022/08/19 08:33:25;;;;;;;15.43;13.83;;;25.60;61.20;;;;;;5087237;28;20466;-46
2022/08/19 08:36:07;;;;;;;16.17;14.57;;;25.70;60.80;;;;;;5070529;28;20489;-46
2022/08/19 08:38:36;;;;;;;16.27;14.57;;;25.70;60.60;;;;;;5087773;28;20440;-47
2022/08/19 08:41:27;;;;;;;20.00;17.43;;;25.70;60.60;;;;;;5071280;28;20832;-46
2022/08/19 08:43:56;;;;;;;22.10;18.23;;;25.70;60.00;;;;;;5068614;28;20448;-46
2022/08/19 08:46:38;;;;;;;17.30;15.50;;;25.80;59.50;;;;;;5069210;28;20486;-46
2022/08/19 08:49:33;;;;;;;16.10;13.10;;;25.80;59.00;;;;;;5085678;28;20459;-46
2022/08/19 08:52:04;;;;;;;14.67;13.27;;;25.90;59.10;;;;;;5085705;28;20456;-46
2022/08/19 08:54:42;;;;;;;14.93;13.50;;;25.90;59.10;;;;;;5086412;28;20456;-47
2022/08/19 08:57:33;;;;;;;15.73;12.47;;;26.00;58.40;;;;;;5086147;28;20914;-46
2022/08/19 09:00:12;;;;;;;14.77;13.30;;;26.10;58.70;;;;;;5085923;28;20860;-46
2022/08/19 09:02:42;;;;;;;11.90;10.80;;;26.30;58.20;;;;;;5084724;28;20741;-46
2022/08/19 09:05:12;;;;;;;13.47;12.07;;;26.30;58.10;;;;;;5084407;28;20445;-46
2022/08/19 09:07:57;;;;;;;14.07;12.43;;;26.40;58.20;;;;;;5085580;28;20447;-46
2022/08/19 09:10:46;;;;;;;12.17;11.07;;;26.50;58.10;;;;;;5087055;28;20440;-46
2022/08/19 09:13:25;;;;;;;13.13;11.83;;;26.50;58.10;;;;;;5087382;28;20448;-46
2022/08/19 09:16:02;;;;;;;12.47;10.50;;;26.60;57.60;;;;;;5067746;28;21094;-46
2022/08/19 09:19:01;;;;;;;11.60;10.43;;;26.70;57.50;;;;;;5086884;28;21182;-46
2022/08/19 09:21:28;;;;;;;11.60;10.40;;;26.80;56.80;;;;;;5052050;28;20456;-46
2022/08/19 09:23:59;;;;;;;13.03;11.77;;;26.80;56.60;;;;;;5064880;28;20954;-46
2022/08/19 09:26:26;;;;;;;12.00;10.80;;;26.90;55.90;;;;;;5086130;28;20440;-46
2022/08/19 09:29:14;;;;;;;10.13;9.20;;;27.00;56.10;;;;;;5070403;28;20436;-46
2022/08/19 09:31:40;;;;;;;12.07;10.80;;;27.10;55.40;;;;;;5077128;28;20459;-46
2022/08/19 09:34:08;;;;;;;11.10;10.10;;;27.20;55.40;;;;;;5086873;28;20475;-46
2022/08/19 09:36:53;;;;;;;12.40;11.30;;;27.20;55.20;;;;;;5085576;28;20233;-46
2022/08/19 09:39:20;;;;;;;13.80;12.60;;;27.30;55.30;;;;;;5067813;28;20452;-46
2022/08/19 09:41:49;;;;;;;14.23;13.07;;;27.30;55.20;;;;;;5068701;28;20436;-46
2022/08/19 09:44:16;;;;;;;15.80;14.40;;;27.30;55.20;;;;;;5068670;28;20444;-46
2022/08/19 09:46:46;;;;;;;15.43;13.83;;;27.30;54.90;;;;;;5087344;28;20449;-46
2022/08/19 09:49:14;;;;;;;17.60;16.10;;;27.30;55.10;;;;;;5089518;28;20214;-46
2022/08/19 09:51:44;;;;;;;16.83;15.20;;;27.30;55.10;;;;;;5088488;28;20494;-46
2022/08/19 09:54:17;;;;;;;17.20;15.80;;;27.40;55.10;;;;;;5090092;28;20809;-47
2022/08/19 09:56:51;;;;;;;18.10;16.30;;;27.50;54.60;;;;;;5090468;28;20240;-46
2022/08/19 09:59:18;;;;;;;15.80;14.30;;;27.50;53.80;;;;;;5071378;28;20969;-46
2022/08/19 10:01:44;;;;;;;13.50;11.67;;;27.60;53.40;;;;;;5090619;28;20448;-46
2022/08/19 10:04:12;;;;;;;11.73;10.73;;;27.60;53.00;;;;;;5073857;28;20466;-46
2022/08/19 10:06:49;;;;;;;13.70;12.30;;;27.70;52.40;;;;;;5072423;28;20252;-46
2022/08/19 10:09:20;;;;;;;16.13;14.43;;;27.80;52.30;;;;;;5088164;28;20316;-45
2022/08/19 10:12:00;;;;;;;14.00;12.80;;;27.90;52.10;;;;;;5087274;28;20475;-46
2022/08/19 10:14:28;;;;;;;11.33;10.33;;;28.00;51.80;;;;;;5090061;28;20210;-46
2022/08/19 10:16:56;;;;;;;12.47;11.13;;;28.00;51.40;;;;;;5056082;28;20495;-46
2022/08/19 10:19:24;;;;;;;12.53;11.43;;;28.10;51.20;;;;;;5091198;28;20740;-46
2022/08/19 10:21:53;;;;;;;12.80;11.60;;;28.20;51.10;;;;;;5058111;28;20198;-46
2022/08/19 10:24:27;;;;;;;11.30;10.37;;;28.20;51.00;;;;;;5089464;28;20213;-46
2022/08/19 10:26:54;;;;;;;11.73;10.33;;;28.20;51.00;;;;;;5088123;28;20212;-46
2022/08/19 10:29:24;;;;;;;10.70;9.60;;;28.20;50.80;;;;;;5052556;28;20221;-46
2022/08/19 10:32:03;;;;;;;11.07;9.90;;;28.20;50.40;;;;;;5072528;28;20756;-46
2022/08/19 10:34:30;;;;;;;9.23;8.33;;;28.10;50.50;;;;;;5085294;28;20207;-46
2022/08/19 10:36:59;;;;;;;8.87;8.17;;;28.10;50.40;;;;;;5071390;28;20236;-46
2022/08/19 10:39:29;;;;;;;8.17;7.47;;;28.10;50.50;;;;;;5066098;28;20210;-46
2022/08/19 10:41:57;;;;;;;8.97;8.17;;;28.10;49.60;;;;;;5089389;28;20236;-46
2022/08/19 10:44:25;;;;;;;8.67;7.83;;;28.00;49.40;;;;;;5065836;28;20470;-46
2022/08/19 10:46:59;;;;;;;8.57;7.70;;;28.00;49.50;;;;;;5087141;28;20216;-46
2022/08/19 10:49:25;;;;;;;8.27;7.57;;;27.90;49.70;;;;;;5084618;28;20206;-46
2022/08/19 10:57:34;;;;;;;9.37;8.53;;;28.00;49.30;;;;;;5088063;28;20591;-46
2022/08/19 11:00:22;;;;;;;8.00;7.20;;;28.00;49.40;;;;;;5085384;28;20550;-46
2022/08/19 11:02:50;;;;;;;8.60;7.83;;;27.90;49.70;;;;;;5070303;28;20315;-46
2022/08/19 11:05:18;;;;;;;9.40;8.50;;;27.90;49.40;;;;;;5087493;28;20209;-46
2022/08/19 11:07:45;;;;;;;8.97;8.27;;;27.80;49.10;;;;;;5071055;28;20234;-46
2022/08/19 11:10:14;;;;;;;8.20;7.50;;;27.80;49.10;;;;;;5087883;28;20210;-46
2022/08/19 11:12:46;;;;;;;8.77;8.03;;;27.80;48.70;;;;;;5086845;28;23596;-46
2022/08/19 11:15:13;;;;;;;9.13;8.30;;;27.70;48.30;;;;;;5076900;28;20214;-46
2022/08/19 11:17:41;;;;;;;9.20;8.40;;;27.70;48.70;;;;;;5083904;28;20729;-46
2022/08/19 11:20:08;;;;;;;8.50;7.70;;;27.70;48.70;;;;;;5088702;28;20252;-46
2022/08/19 11:22:36;;;;;;;9.47;8.70;;;27.60;48.50;;;;;;5086269;28;20209;-46
2022/08/19 11:25:10;;;;;;;9.30;8.43;;;27.50;48.80;;;;;;5053826;28;20255;-46
2022/08/19 11:27:44;;;;;;;9.00;8.20;;;27.50;49.40;;;;;;5087844;28;20197;-46
2022/08/19 11:30:13;;;;;;;8.00;7.40;;;27.40;49.20;;;;;;5087567;28;20464;-46
2022/08/19 11:32:41;;;;;;;7.03;6.53;;;27.40;48.90;;;;;;5067193;28;20210;-46
2022/08/19 11:35:15;;;;;;;8.20;7.50;;;27.40;48.50;;;;;;5087159;28;20462;-46
2022/08/19 11:37:42;;;;;;;7.77;7.07;;;27.40;48.40;;;;;;5069004;28;20491;-46
2022/08/19 11:40:09;;;;;;;10.30;7.97;;;27.40;48.00;;;;;;5069200;28;20467;-46
2022/08/19 11:42:55;;;;;;;7.50;6.80;;;27.40;48.20;;;;;;5084874;28;20464;-46
2022/08/19 11:45:24;;;;;;;9.20;8.30;;;27.40;47.90;;;;;;5087403;28;20202;-46
2022/08/19 11:47:51;;;;;;;9.53;8.73;;;27.40;48.60;;;;;;5086923;28;20214;-46
2022/08/19 11:50:18;;;;;;;9.00;8.30;;;27.40;48.70;;;;;;5070336;28;20497;-46
2022/08/19 11:52:45;;;;;;;9.57;8.77;;;27.40;48.60;;;;;;5068546;28;20202;-46
2022/08/19 11:55:13;;;;;;;9.83;9.03;;;27.40;48.50;;;;;;5069148;28;20463;-46
2022/08/19 11:57:41;;;;;;;9.27;8.50;;;27.40;48.50;;;;;;5086854;28;20229;-46
2022/08/19 12:00:10;;;;;;;9.13;8.40;;;27.40;49.10;;;;;;5088584;28;20213;-46
2022/08/19 12:02:36;;;;;;;10.30;9.40;;;27.40;48.60;;;;;;5088602;28;20860;-46
2022/08/19 12:05:04;;;;;;;10.00;9.20;;;27.40;48.70;;;;;;5067324;28;20209;-46
2022/08/19 12:07:37;;;;;;;9.63;8.93;;;27.40;48.80;;;;;;5069364;28;20289;-46
2022/08/19 12:10:04;;;;;;;10.17;9.37;;;27.40;48.90;;;;;;5050720;28;20467;-46
2022/08/19 12:12:31;;;;;;;11.13;10.13;;;27.40;48.70;;;;;;5061424;28;20594;-46
2022/08/19 12:14:58;;;;;;;9.47;8.67;;;27.40;48.40;;;;;;5078197;28;20463;-45
2022/08/19 12:17:28;;;;;;;10.00;9.10;;;27.50;48.70;;;;;;5078477;28;20495;-45
2022/08/19 12:19:55;;;;;;;10.03;8.60;;;27.50;48.50;;;;;;5084786;28;20235;-45
2022/08/19 12:22:22;;;;;;;9.53;8.73;;;27.60;48.40;;;;;;5063763;28;20665;-45
2022/08/19 12:24:50;;;;;;;19.20;8.70;;;27.60;48.30;;;;;;5082981;28;20210;-45
2022/08/19 12:27:17;;;;;;;9.20;8.30;;;27.60;48.40;;;;;;5066173;28;20209;-45
2022/08/19 12:30:07;;;;;;;9.40;8.60;;;27.70;47.80;;;;;;5086531;28;20732;-47
2022/08/19 12:32:34;;;;;;;9.83;9.03;;;27.70;47.80;;;;;;5068966;28;20214;-46
2022/08/19 12:35:01;;;;;;;9.50;8.60;;;27.80;47.80;;;;;;5083695;28;20461;-46
2022/08/19 12:37:29;;;;;;;9.60;8.70;;;27.80;47.90;;;;;;5083570;28;20332;-46
2022/08/19 12:39:56;;;;;;;8.50;7.90;;;27.80;47.90;;;;;;5063669;28;20479;-46
2022/08/19 12:42:23;;;;;;;8.93;8.23;;;27.80;47.80;;;;;;5063680;28;20275;-46
2022/08/19 12:44:51;;;;;;;8.80;8.03;;;27.90;47.30;;;;;;5083320;28;20202;-47
2022/08/19 12:47:18;;;;;;;11.30;8.33;;;27.90;47.70;;;;;;5061942;28;20526;-46
2022/08/19 12:49:46;;;;;;;8.67;7.90;;;27.90;47.40;;;;;;5084517;28;20271;-46
2022/08/19 12:52:20;;;;;;;8.40;7.70;;;27.80;47.70;;;;;;5079018;28;20467;-46
2022/08/19 12:54:51;;;;;;;8.47;7.77;;;27.80;47.80;;;;;;5078685;28;20467;-46
2022/08/19 12:57:22;;;;;;;8.10;7.50;;;27.80;47.10;;;;;;5084152;28;20338;-46
2022/08/19 13:00:20;;;;;;;8.33;7.63;;;27.80;46.20;;;;;;5086644;28;20210;-46
2022/08/19 13:02:50;;;;;;;8.40;6.70;;;27.80;46.20;;;;;;5065069;28;20463;-46
2022/08/19 13:05:23;;;;;;;7.93;7.33;;;27.80;46.70;;;;;;5084408;28;20198;-46